sensor_id;sensor_type;location;lat;lon;timestamp;temperature;humidity
74946;HTU21D;63509;45.250;38.102;2024-01-07T00:02:19;9.82;70.20
74946;HTU21D;63509;45.250;38.102;2024-01-07T00:04:45;9.83;70.16
74946;HTU21D;63509;45.250;38.102;2024-01-07T00:07:11;9.84;70.13
74946;HTU21D;63509;45.250;38.102;2024-01-07T00:09:37;9.85;70.10
74946;HTU21D;63509;45.250;38.102;2024-01-07T00:12:03;9.85;70.07
74946;HTU21D;63509;45.250;38.102;2024-01-07T00:14:29;9.89;70.05
74946;HTU21D;63509;45.250;38.102;2024-01-07T00:16:55;9.90;69.98
74946;HTU21D;63509;45.250;38.102;2024-01-07T00:19:21;9.92;69.95
74946;HTU21D;63509;45.250;38.102;2024-01-07T00:21:47;9.95;69.87
74946;HTU21D;63509;45.250;38.102;2024-01-07T00:24:13;9.96;69.84
74946;HTU21D;63509;45.250;38.102;2024-01-07T00:26:39;9.97;69.84
74946;HTU21D;63509;45.250;38.102;2024-01-07T00:29:06;9.96;69.78
74946;HTU21D;63509;45.250;38.102;2024-01-07T00:31:32;9.98;69.74
74946;HTU21D;63509;45.250;38.102;2024-01-07T00:33:58;9.98;69.73
74946;HTU21D;63509;45.250;38.102;2024-01-07T00:36:24;9.98;69.71
74946;HTU21D;63509;45.250;38.102;2024-01-07T00:38:50;9.98;69.68
74946;HTU21D;63509;45.250;38.102;2024-01-07T00:41:16;9.98;69.65
74946;HTU21D;63509;45.250;38.102;2024-01-07T00:43:42;9.99;69.61
74946;HTU21D;63509;45.250;38.102;2024-01-07T00:46:08;10.00;69.57
74946;HTU21D;63509;45.250;38.102;2024-01-07T00:48:34;10.03;69.55
74946;HTU21D;63509;45.250;38.102;2024-01-07T00:51:00;10.04;69.50
74946;HTU21D;63509;45.250;38.102;2024-01-07T00:53:26;10.04;69.36
74946;HTU21D;63509;45.250;38.102;2024-01-07T00:55:52;10.05;69.36
74946;HTU21D;63509;45.250;38.102;2024-01-07T00:58:18;10.08;69.25
74946;HTU21D;63509;45.250;38.102;2024-01-07T01:00:44;10.10;69.11
74946;HTU21D;63509;45.250;38.102;2024-01-07T01:03:10;10.14;69.04
74946;HTU21D;63509;45.250;38.102;2024-01-07T01:05:36;10.19;68.97
74946;HTU21D;63509;45.250;38.102;2024-01-07T01:08:02;10.22;68.91
74946;HTU21D;63509;45.250;38.102;2024-01-07T01:10:28;10.25;68.88
74946;HTU21D;63509;45.250;38.102;2024-01-07T01:12:55;10.26;68.81
74946;HTU21D;63509;45.250;38.102;2024-01-07T01:15:21;10.27;68.70
74946;HTU21D;63509;45.250;38.102;2024-01-07T01:17:47;10.29;68.70
74946;HTU21D;63509;45.250;38.102;2024-01-07T01:20:13;10.28;68.66
74946;HTU21D;63509;45.250;38.102;2024-01-07T01:22:39;10.28;68.68
74946;HTU21D;63509;45.250;38.102;2024-01-07T01:25:06;10.24;68.63
74946;HTU21D;63509;45.250;38.102;2024-01-07T01:27:32;10.20;68.67
74946;HTU21D;63509;45.250;38.102;2024-01-07T01:29:58;10.14;68.70
74946;HTU21D;63509;45.250;38.102;2024-01-07T01:32:24;10.07;68.76
74946;HTU21D;63509;45.250;38.102;2024-01-07T01:34:50;10.01;68.81
74946;HTU21D;63509;45.250;38.102;2024-01-07T01:37:16;9.94;68.83
74946;HTU21D;63509;45.250;38.102;2024-01-07T01:39:42;9.90;68.91
74946;HTU21D;63509;45.250;38.102;2024-01-07T01:42:08;9.82;68.94
74946;HTU21D;63509;45.250;38.102;2024-01-07T01:44:34;9.75;68.98
74946;HTU21D;63509;45.250;38.102;2024-01-07T01:47:01;9.67;69.04
74946;HTU21D;63509;45.250;38.102;2024-01-07T01:49:27;9.60;69.12
74946;HTU21D;63509;45.250;38.102;2024-01-07T01:51:54;9.54;69.20
74946;HTU21D;63509;45.250;38.102;2024-01-07T01:54:20;9.49;69.25
74946;HTU21D;63509;45.250;38.102;2024-01-07T01:56:48;9.45;69.30
74946;HTU21D;63509;45.250;38.102;2024-01-07T01:59:14;9.38;69.36
74946;HTU21D;63509;45.250;38.102;2024-01-07T02:01:41;9.32;69.37
74946;HTU21D;63509;45.250;38.102;2024-01-07T02:04:08;9.26;69.46
74946;HTU21D;63509;45.250;38.102;2024-01-07T02:06:35;9.21;69.53
74946;HTU21D;63509;45.250;38.102;2024-01-07T02:09:02;9.16;69.61
74946;HTU21D;63509;45.250;38.102;2024-01-07T02:11:28;9.10;69.62
74946;HTU21D;63509;45.250;38.102;2024-01-07T02:13:54;9.04;69.65
74946;HTU21D;63509;45.250;38.102;2024-01-07T02:16:20;8.97;69.73
74946;HTU21D;63509;45.250;38.102;2024-01-07T02:18:46;8.92;69.81
74946;HTU21D;63509;45.250;38.102;2024-01-07T02:21:13;8.87;69.84
74946;HTU21D;63509;45.250;38.102;2024-01-07T02:23:40;8.83;69.93
74946;HTU21D;63509;45.250;38.102;2024-01-07T02:26:07;8.81;69.99
74946;HTU21D;63509;45.250;38.102;2024-01-07T02:28:33;8.76;70.03
74946;HTU21D;63509;45.250;38.102;2024-01-07T02:31:00;8.75;70.10
74946;HTU21D;63509;45.250;38.102;2024-01-07T02:33:26;8.71;70.15
74946;HTU21D;63509;45.250;38.102;2024-01-07T02:35:52;8.68;70.19
74946;HTU21D;63509;45.250;38.102;2024-01-07T02:38:18;8.63;70.25
74946;HTU21D;63509;45.250;38.102;2024-01-07T02:40:44;8.62;70.32
74946;HTU21D;63509;45.250;38.102;2024-01-07T02:43:10;8.63;70.38
74946;HTU21D;63509;45.250;38.102;2024-01-07T02:45:36;8.66;70.39
74946;HTU21D;63509;45.250;38.102;2024-01-07T02:48:03;8.64;70.39
74946;HTU21D;63509;45.250;38.102;2024-01-07T02:50:29;8.65;70.39
74946;HTU21D;63509;45.250;38.102;2024-01-07T02:52:55;8.66;70.36
74946;HTU21D;63509;45.250;38.102;2024-01-07T02:55:21;8.66;70.35
74946;HTU21D;63509;45.250;38.102;2024-01-07T02:57:47;8.62;70.39
74946;HTU21D;63509;45.250;38.102;2024-01-07T03:00:13;8.57;70.42
74946;HTU21D;63509;45.250;38.102;2024-01-07T03:02:39;8.55;70.48
74946;HTU21D;63509;45.250;38.102;2024-01-07T03:05:06;8.49;70.53
74946;HTU21D;63509;45.250;38.102;2024-01-07T03:07:32;8.47;70.57
74946;HTU21D;63509;45.250;38.102;2024-01-07T03:09:58;8.45;70.61
74946;HTU21D;63509;45.250;38.102;2024-01-07T03:12:24;8.44;70.65
74946;HTU21D;63509;45.250;38.102;2024-01-07T03:14:50;8.42;70.66
74946;HTU21D;63509;45.250;38.102;2024-01-07T03:17:16;8.38;70.70
74946;HTU21D;63509;45.250;38.102;2024-01-07T03:19:43;8.34;70.74
74946;HTU21D;63509;45.250;38.102;2024-01-07T03:22:09;8.31;70.79
74946;HTU21D;63509;45.250;38.102;2024-01-07T03:24:35;8.29;70.83
74946;HTU21D;63509;45.250;38.102;2024-01-07T03:27:01;8.27;70.85
74946;HTU21D;63509;45.250;38.102;2024-01-07T03:29:27;8.23;70.92
74946;HTU21D;63509;45.250;38.102;2024-01-07T03:31:53;8.24;70.96
74946;HTU21D;63509;45.250;38.102;2024-01-07T03:34:19;8.23;70.99
74946;HTU21D;63509;45.250;38.102;2024-01-07T03:36:46;8.23;71.00
74946;HTU21D;63509;45.250;38.102;2024-01-07T03:39:12;8.24;71.03
74946;HTU21D;63509;45.250;38.102;2024-01-07T03:41:38;8.24;71.03
74946;HTU21D;63509;45.250;38.102;2024-01-07T03:44:04;8.26;71.06
74946;HTU21D;63509;45.250;38.102;2024-01-07T03:46:30;8.24;71.07
74946;HTU21D;63509;45.250;38.102;2024-01-07T03:48:56;8.26;71.10
74946;HTU21D;63509;45.250;38.102;2024-01-07T03:51:22;8.27;71.10
74946;HTU21D;63509;45.250;38.102;2024-01-07T03:53:48;8.27;71.10
74946;HTU21D;63509;45.250;38.102;2024-01-07T03:56:14;8.28;71.08
74946;HTU21D;63509;45.250;38.102;2024-01-07T03:58:40;8.28;71.07
74946;HTU21D;63509;45.250;38.102;2024-01-07T04:01:07;8.29;71.08
74946;HTU21D;63509;45.250;38.102;2024-01-07T04:03:33;8.30;71.07
74946;HTU21D;63509;45.250;38.102;2024-01-07T04:05:58;8.28;71.05
74946;HTU21D;63509;45.250;38.102;2024-01-07T04:08:25;8.27;71.06
74946;HTU21D;63509;45.250;38.102;2024-01-07T04:10:51;8.26;71.05
74946;HTU21D;63509;45.250;38.102;2024-01-07T04:13:17;8.22;71.06
74946;HTU21D;63509;45.250;38.102;2024-01-07T04:15:43;8.20;71.06
74946;HTU21D;63509;45.250;38.102;2024-01-07T04:18:09;8.17;71.07
74946;HTU21D;63509;45.250;38.102;2024-01-07T04:20:35;8.16;71.12
74946;HTU21D;63509;45.250;38.102;2024-01-07T04:23:01;8.15;71.12
74946;HTU21D;63509;45.250;38.102;2024-01-07T04:25:28;8.14;71.11
74946;HTU21D;63509;45.250;38.102;2024-01-07T04:27:53;8.13;71.13
74946;HTU21D;63509;45.250;38.102;2024-01-07T04:30:19;8.09;71.10
74946;HTU21D;63509;45.250;38.102;2024-01-07T04:32:46;8.06;71.11
74946;HTU21D;63509;45.250;38.102;2024-01-07T04:35:12;8.00;71.14
74946;HTU21D;63509;45.250;38.102;2024-01-07T04:37:38;7.96;71.17
74946;HTU21D;63509;45.250;38.102;2024-01-07T04:40:04;7.90;71.18
74946;HTU21D;63509;45.250;38.102;2024-01-07T04:42:31;7.85;71.22
74946;HTU21D;63509;45.250;38.102;2024-01-07T04:44:57;7.78;71.27
74946;HTU21D;63509;45.250;38.102;2024-01-07T04:47:28;7.74;71.31
74946;HTU21D;63509;45.250;38.102;2024-01-07T04:49:55;7.69;71.36
74946;HTU21D;63509;45.250;38.102;2024-01-07T04:52:24;7.65;71.42
74946;HTU21D;63509;45.250;38.102;2024-01-07T04:54:52;7.61;71.46
74946;HTU21D;63509;45.250;38.102;2024-01-07T04:57:18;7.59;71.51
74946;HTU21D;63509;45.250;38.102;2024-01-07T04:59:45;7.55;71.56
74946;HTU21D;63509;45.250;38.102;2024-01-07T05:02:11;7.52;71.59
74946;HTU21D;63509;45.250;38.102;2024-01-07T05:04:38;7.47;71.62
74946;HTU21D;63509;45.250;38.102;2024-01-07T05:07:04;7.42;71.63
74946;HTU21D;63509;45.250;38.102;2024-01-07T05:09:31;7.35;71.67
74946;HTU21D;63509;45.250;38.102;2024-01-07T05:11:57;7.28;71.73
74946;HTU21D;63509;45.250;38.102;2024-01-07T05:14:24;7.23;71.80
74946;HTU21D;63509;45.250;38.102;2024-01-07T05:16:50;7.19;71.86
74946;HTU21D;63509;45.250;38.102;2024-01-07T05:19:16;7.19;71.90
74946;HTU21D;63509;45.250;38.102;2024-01-07T05:21:42;7.19;71.92
74946;HTU21D;63509;45.250;38.102;2024-01-07T05:24:08;7.19;71.88
74946;HTU21D;63509;45.250;38.102;2024-01-07T05:26:42;7.15;71.87
74946;HTU21D;63509;45.250;38.102;2024-01-07T05:29:08;7.10;71.88
74946;HTU21D;63509;45.250;38.102;2024-01-07T05:31:34;7.03;71.93
74946;HTU21D;63509;45.250;38.102;2024-01-07T05:34:00;7.00;71.96
74946;HTU21D;63509;45.250;38.102;2024-01-07T05:36:26;6.96;72.02
74946;HTU21D;63509;45.250;38.102;2024-01-07T05:38:53;6.95;72.05
74946;HTU21D;63509;45.250;38.102;2024-01-07T05:41:19;6.93;72.06
74946;HTU21D;63509;45.250;38.102;2024-01-07T05:43:45;6.91;72.08
74946;HTU21D;63509;45.250;38.102;2024-01-07T05:46:11;6.91;72.09
74946;HTU21D;63509;45.250;38.102;2024-01-07T05:48:44;6.89;72.11
74946;HTU21D;63509;45.250;38.102;2024-01-07T05:51:11;6.86;72.16
74946;HTU21D;63509;45.250;38.102;2024-01-07T05:53:38;6.84;72.22
74946;HTU21D;63509;45.250;38.102;2024-01-07T05:56:05;6.86;72.22
74946;HTU21D;63509;45.250;38.102;2024-01-07T05:58:31;6.86;72.21
74946;HTU21D;63509;45.250;38.102;2024-01-07T06:00:57;6.89;72.26
74946;HTU21D;63509;45.250;38.102;2024-01-07T06:03:23;6.96;72.27
74946;HTU21D;63509;45.250;38.102;2024-01-07T06:05:49;7.07;72.23
74946;HTU21D;63509;45.250;38.102;2024-01-07T06:08:16;7.20;72.18
74946;HTU21D;63509;45.250;38.102;2024-01-07T06:10:42;7.35;72.10
74946;HTU21D;63509;45.250;38.102;2024-01-07T06:13:08;7.49;72.03
74946;HTU21D;63509;45.250;38.102;2024-01-07T06:15:34;7.63;71.98
74946;HTU21D;63509;45.250;38.102;2024-01-07T06:18:00;7.78;71.97
74946;HTU21D;63509;45.250;38.102;2024-01-07T06:20:27;7.96;71.96
74946;HTU21D;63509;45.250;38.102;2024-01-07T06:22:54;8.15;71.90
74946;HTU21D;63509;45.250;38.102;2024-01-07T06:25:20;8.32;71.83
74946;HTU21D;63509;45.250;38.102;2024-01-07T06:27:46;8.51;71.77
74946;HTU21D;63509;45.250;38.102;2024-01-07T06:30:12;8.72;71.71
74946;HTU21D;63509;45.250;38.102;2024-01-07T06:32:39;8.93;71.56
74946;HTU21D;63509;45.250;38.102;2024-01-07T06:35:06;9.16;71.41
74946;HTU21D;63509;45.250;38.102;2024-01-07T06:37:32;9.38;71.22
74946;HTU21D;63509;45.250;38.102;2024-01-07T06:39:58;9.60;71.06
74946;HTU21D;63509;45.250;38.102;2024-01-07T06:42:24;9.82;70.89
74946;HTU21D;63509;45.250;38.102;2024-01-07T06:44:50;10.03;70.74
74946;HTU21D;63509;45.250;38.102;2024-01-07T06:47:16;10.24;70.64
74946;HTU21D;63509;45.250;38.102;2024-01-07T06:49:43;10.46;70.48
74946;HTU21D;63509;45.250;38.102;2024-01-07T06:52:09;10.67;70.24
74946;HTU21D;63509;45.250;38.102;2024-01-07T06:54:35;10.87;70.04
74946;HTU21D;63509;45.250;38.102;2024-01-07T06:57:02;11.09;69.78
74946;HTU21D;63509;45.250;38.102;2024-01-07T06:59:28;11.28;69.55
74946;HTU21D;63509;45.250;38.102;2024-01-07T07:01:54;11.51;69.37
74946;HTU21D;63509;45.250;38.102;2024-01-07T07:04:22;11.71;69.13
74946;HTU21D;63509;45.250;38.102;2024-01-07T07:06:48;11.96;68.91
74946;HTU21D;63509;45.250;38.102;2024-01-07T07:09:15;12.20;68.73
74946;HTU21D;63509;45.250;38.102;2024-01-07T07:11:41;12.45;68.49
74946;HTU21D;63509;45.250;38.102;2024-01-07T07:14:08;12.70;68.36
74946;HTU21D;63509;45.250;38.102;2024-01-07T07:16:35;12.90;68.28
74946;HTU21D;63509;45.250;38.102;2024-01-07T07:19:01;13.06;68.17
74946;HTU21D;63509;45.250;38.102;2024-01-07T07:21:28;13.11;67.94
74946;HTU21D;63509;45.250;38.102;2024-01-07T07:23:54;13.12;67.55
74946;HTU21D;63509;45.250;38.102;2024-01-07T07:26:20;13.11;67.42
74946;HTU21D;63509;45.250;38.102;2024-01-07T07:28:47;13.17;67.25
74946;HTU21D;63509;45.250;38.102;2024-01-07T07:31:14;13.27;67.25
74946;HTU21D;63509;45.250;38.102;2024-01-07T07:33:40;13.44;67.22
74946;HTU21D;63509;45.250;38.102;2024-01-07T07:36:07;13.65;67.21
74946;HTU21D;63509;45.250;38.102;2024-01-07T07:38:33;13.85;66.91
74946;HTU21D;63509;45.250;38.102;2024-01-07T07:41:00;14.08;66.53
74946;HTU21D;63509;45.250;38.102;2024-01-07T07:43:26;14.30;66.09
74946;HTU21D;63509;45.250;38.102;2024-01-07T07:45:52;14.51;65.49
74946;HTU21D;63509;45.250;38.102;2024-01-07T07:48:19;14.71;64.77
74946;HTU21D;63509;45.250;38.102;2024-01-07T07:50:46;14.91;64.30
74946;HTU21D;63509;45.250;38.102;2024-01-07T07:53:12;15.09;63.77
74946;HTU21D;63509;45.250;38.102;2024-01-07T07:55:38;15.25;63.53
74946;HTU21D;63509;45.250;38.102;2024-01-07T07:58:04;15.40;62.78
74946;HTU21D;63509;45.250;38.102;2024-01-07T08:00:30;15.54;62.37
74946;HTU21D;63509;45.250;38.102;2024-01-07T08:02:57;15.68;61.95
74946;HTU21D;63509;45.250;38.102;2024-01-07T08:05:23;15.80;61.50
74946;HTU21D;63509;45.250;38.102;2024-01-07T08:07:50;15.92;61.12
74946;HTU21D;63509;45.250;38.102;2024-01-07T08:10:16;16.02;61.01
74946;HTU21D;63509;45.250;38.102;2024-01-07T08:12:42;16.29;60.48
74946;HTU21D;63509;45.250;38.102;2024-01-07T08:15:09;16.22;60.12
74946;HTU21D;63509;45.250;38.102;2024-01-07T08:17:35;16.31;59.92
74946;HTU21D;63509;45.250;38.102;2024-01-07T08:20:01;16.40;59.54
74946;HTU21D;63509;45.250;38.102;2024-01-07T08:22:27;16.48;59.23
74946;HTU21D;63509;45.250;38.102;2024-01-07T08:24:53;16.54;58.93
74946;HTU21D;63509;45.250;38.102;2024-01-07T08:27:20;16.59;58.76
74946;HTU21D;63509;45.250;38.102;2024-01-07T08:29:46;16.64;58.43
74946;HTU21D;63509;45.250;38.102;2024-01-07T08:32:12;16.63;58.44
74946;HTU21D;63509;45.250;38.102;2024-01-07T08:34:38;16.63;58.26
74946;HTU21D;63509;45.250;38.102;2024-01-07T08:37:06;16.67;58.27
74946;HTU21D;63509;45.250;38.102;2024-01-07T08:39:32;16.77;58.19
74946;HTU21D;63509;45.250;38.102;2024-01-07T08:41:58;16.81;57.98
74946;HTU21D;63509;45.250;38.102;2024-01-07T08:44:25;16.80;57.78
74946;HTU21D;63509;45.250;38.102;2024-01-07T08:46:51;16.74;57.53
74946;HTU21D;63509;45.250;38.102;2024-01-07T08:49:17;16.66;57.47
74946;HTU21D;63509;45.250;38.102;2024-01-07T08:51:43;16.61;57.40
74946;HTU21D;63509;45.250;38.102;2024-01-07T08:54:10;16.54;57.15
74946;HTU21D;63509;45.250;38.102;2024-01-07T08:56:36;16.47;57.32
74946;HTU21D;63509;45.250;38.102;2024-01-07T08:59:02;16.43;57.39
74946;HTU21D;63509;45.250;38.102;2024-01-07T09:01:30;16.41;57.35
74946;HTU21D;63509;45.250;38.102;2024-01-07T09:03:56;16.46;57.16
74946;HTU21D;63509;45.250;38.102;2024-01-07T09:06:23;16.48;56.76
74946;HTU21D;63509;45.250;38.102;2024-01-07T09:08:50;16.54;56.58
74946;HTU21D;63509;45.250;38.102;2024-01-07T09:11:19;16.60;56.37
74946;HTU21D;63509;45.250;38.102;2024-01-07T09:13:45;16.60;55.91
74946;HTU21D;63509;45.250;38.102;2024-01-07T09:16:14;16.56;55.65
74946;HTU21D;63509;45.250;38.102;2024-01-07T09:18:41;16.47;55.54
74946;HTU21D;63509;45.250;38.102;2024-01-07T09:21:10;16.39;55.41
74946;HTU21D;63509;45.250;38.102;2024-01-07T09:23:36;16.29;55.43
74946;HTU21D;63509;45.250;38.102;2024-01-07T09:26:02;16.21;55.33
74946;HTU21D;63509;45.250;38.102;2024-01-07T09:28:28;16.13;55.42
74946;HTU21D;63509;45.250;38.102;2024-01-07T09:30:55;16.05;55.45
74946;HTU21D;63509;45.250;38.102;2024-01-07T09:33:21;16.03;55.33
74946;HTU21D;63509;45.250;38.102;2024-01-07T09:35:52;16.02;55.55
74946;HTU21D;63509;45.250;38.102;2024-01-07T09:38:22;16.03;55.43
74946;HTU21D;63509;45.250;38.102;2024-01-07T09:40:51;16.03;55.19
74946;HTU21D;63509;45.250;38.102;2024-01-07T09:43:18;16.06;55.15
74946;HTU21D;63509;45.250;38.102;2024-01-07T09:45:46;16.10;55.16
74946;HTU21D;63509;45.250;38.102;2024-01-07T09:48:13;16.16;54.95
74946;HTU21D;63509;45.250;38.102;2024-01-07T09:50:41;16.20;54.77
74946;HTU21D;63509;45.250;38.102;2024-01-07T09:53:07;16.29;54.91
74946;HTU21D;63509;45.250;38.102;2024-01-07T09:58:46;16.52;54.41
74946;HTU21D;63509;45.250;38.102;2024-01-07T10:01:18;16.61;54.02
74946;HTU21D;63509;45.250;38.102;2024-01-07T10:03:45;16.67;53.80
74946;HTU21D;63509;45.250;38.102;2024-01-07T10:06:12;16.73;53.57
74946;HTU21D;63509;45.250;38.102;2024-01-07T10:08:39;16.80;53.59
74946;HTU21D;63509;45.250;38.102;2024-01-07T10:11:05;16.88;53.46
74946;HTU21D;63509;45.250;38.102;2024-01-07T10:13:31;16.94;53.41
74946;HTU21D;63509;45.250;38.102;2024-01-07T10:15:58;17.02;53.35
74946;HTU21D;63509;45.250;38.102;2024-01-07T10:18:25;17.09;52.74
74946;HTU21D;63509;45.250;38.102;2024-01-07T10:20:52;17.19;52.33
74946;HTU21D;63509;45.250;38.102;2024-01-07T10:23:19;17.29;52.13
74946;HTU21D;63509;45.250;38.102;2024-01-07T10:25:45;17.37;51.65
74946;HTU21D;63509;45.250;38.102;2024-01-07T10:28:13;17.44;51.41
74946;HTU21D;63509;45.250;38.102;2024-01-07T10:30:40;17.50;51.30
74946;HTU21D;63509;45.250;38.102;2024-01-07T10:33:07;17.59;51.21
74946;HTU21D;63509;45.250;38.102;2024-01-07T10:35:36;17.65;50.87
74946;HTU21D;63509;45.250;38.102;2024-01-07T10:38:03;17.67;50.46
74946;HTU21D;63509;45.250;38.102;2024-01-07T10:40:31;17.66;50.29
74946;HTU21D;63509;45.250;38.102;2024-01-07T10:42:59;17.70;49.95
74946;HTU21D;63509;45.250;38.102;2024-01-07T10:45:25;17.70;49.67
74946;HTU21D;63509;45.250;38.102;2024-01-07T10:47:59;17.70;49.83
74946;HTU21D;63509;45.250;38.102;2024-01-07T10:50:26;17.70;49.42
74946;HTU21D;63509;45.250;38.102;2024-01-07T10:52:58;17.69;49.48
74946;HTU21D;63509;45.250;38.102;2024-01-07T10:55:33;17.67;49.26
74946;HTU21D;63509;45.250;38.102;2024-01-07T10:58:00;17.62;48.95
74946;HTU21D;63509;45.250;38.102;2024-01-07T11:00:27;17.60;48.93
74946;HTU21D;63509;45.250;38.102;2024-01-07T11:03:14;17.60;49.78
74946;HTU21D;63509;45.250;38.102;2024-01-07T11:05:54;17.56;49.37
74946;HTU21D;63509;45.250;38.102;2024-01-07T11:08:40;17.56;49.66
74946;HTU21D;63509;45.250;38.102;2024-01-07T11:11:16;17.54;49.31
74946;HTU21D;63509;45.250;38.102;2024-01-07T11:13:48;17.56;48.89
74946;HTU21D;63509;45.250;38.102;2024-01-07T11:16:43;17.59;49.40
74946;HTU21D;63509;45.250;38.102;2024-01-07T11:19:15;17.58;48.53
74946;HTU21D;63509;45.250;38.102;2024-01-07T11:21:42;17.58;47.52
74946;HTU21D;63509;45.250;38.102;2024-01-07T11:24:08;17.54;47.18
74946;HTU21D;63509;45.250;38.102;2024-01-07T11:26:35;17.53;47.12
74946;HTU21D;63509;45.250;38.102;2024-01-07T11:29:01;17.53;46.96
74946;HTU21D;63509;45.250;38.102;2024-01-07T11:31:43;17.53;47.83
74946;HTU21D;63509;45.250;38.102;2024-01-07T11:34:09;17.50;46.96
74946;HTU21D;63509;45.250;38.102;2024-01-07T11:36:36;17.50;46.78
74946;HTU21D;63509;45.250;38.102;2024-01-07T11:39:06;17.48;46.37
74946;HTU21D;63509;45.250;38.102;2024-01-07T11:41:35;17.48;46.64
74946;HTU21D;63509;45.250;38.102;2024-01-07T11:44:02;17.48;46.44
74946;HTU21D;63509;45.250;38.102;2024-01-07T11:46:29;17.48;46.53
74946;HTU21D;63509;45.250;38.102;2024-01-07T11:49:00;17.46;46.41
74946;HTU21D;63509;45.250;38.102;2024-01-07T11:51:31;17.45;46.82
74946;HTU21D;63509;45.250;38.102;2024-01-07T11:53:59;17.45;46.38
74946;HTU21D;63509;45.250;38.102;2024-01-07T11:56:25;17.43;46.40
74946;HTU21D;63509;45.250;38.102;2024-01-07T11:58:52;17.41;46.48
74946;HTU21D;63509;45.250;38.102;2024-01-07T12:01:19;17.39;46.41
74946;HTU21D;63509;45.250;38.102;2024-01-07T12:03:46;17.35;46.50
74946;HTU21D;63509;45.250;38.102;2024-01-07T12:06:13;17.33;46.56
74946;HTU21D;63509;45.250;38.102;2024-01-07T12:08:41;17.31;46.69
74946;HTU21D;63509;45.250;38.102;2024-01-07T12:11:11;17.24;46.80
74946;HTU21D;63509;45.250;38.102;2024-01-07T12:13:38;17.22;46.73
74946;HTU21D;63509;45.250;38.102;2024-01-07T12:16:05;17.17;46.86
74946;HTU21D;63509;45.250;38.102;2024-01-07T12:18:32;17.16;46.86
74946;HTU21D;63509;45.250;38.102;2024-01-07T12:20:59;17.10;46.93
74946;HTU21D;63509;45.250;38.102;2024-01-07T12:23:26;17.10;46.88
74946;HTU21D;63509;45.250;38.102;2024-01-07T12:25:53;17.07;47.05
74946;HTU21D;63509;45.250;38.102;2024-01-07T12:28:20;17.06;47.19
74946;HTU21D;63509;45.250;38.102;2024-01-07T12:30:50;17.11;47.28
74946;HTU21D;63509;45.250;38.102;2024-01-07T12:33:18;17.15;47.30
74946;HTU21D;63509;45.250;38.102;2024-01-07T12:35:46;17.15;46.66
74946;HTU21D;63509;45.250;38.102;2024-01-07T12:38:13;17.14;46.41
74946;HTU21D;63509;45.250;38.102;2024-01-07T12:40:40;17.11;46.19
74946;HTU21D;63509;45.250;38.102;2024-01-07T12:43:10;17.08;46.12
74946;HTU21D;63509;45.250;38.102;2024-01-07T12:45:36;17.04;45.58
74946;HTU21D;63509;45.250;38.102;2024-01-07T12:48:02;17.00;45.85
74946;HTU21D;63509;45.250;38.102;2024-01-07T12:50:29;16.95;45.73
74946;HTU21D;63509;45.250;38.102;2024-01-07T12:52:58;16.89;45.95
74946;HTU21D;63509;45.250;38.102;2024-01-07T12:55:26;16.85;46.14
74946;HTU21D;63509;45.250;38.102;2024-01-07T12:57:52;16.78;46.10
74946;HTU21D;63509;45.250;38.102;2024-01-07T13:00:18;16.74;46.15
74946;HTU21D;63509;45.250;38.102;2024-01-07T13:02:45;16.69;46.26
74946;HTU21D;63509;45.250;38.102;2024-01-07T13:05:12;16.64;46.29
74946;HTU21D;63509;45.250;38.102;2024-01-07T13:07:42;16.57;46.19
74946;HTU21D;63509;45.250;38.102;2024-01-07T13:10:08;16.51;46.15
74946;HTU21D;63509;45.250;38.102;2024-01-07T13:12:38;16.47;46.38
74946;HTU21D;63509;45.250;38.102;2024-01-07T13:15:05;16.40;46.14
74946;HTU21D;63509;45.250;38.102;2024-01-07T13:17:32;16.32;46.21
74946;HTU21D;63509;45.250;38.102;2024-01-07T13:20:01;16.22;46.20
74946;HTU21D;63509;45.250;38.102;2024-01-07T13:22:27;16.14;46.47
74946;HTU21D;63509;45.250;38.102;2024-01-07T13:24:53;16.05;46.71
74946;HTU21D;63509;45.250;38.102;2024-01-07T13:27:20;15.93;47.01
74946;HTU21D;63509;45.250;38.102;2024-01-07T13:29:49;15.86;47.24
74946;HTU21D;63509;45.250;38.102;2024-01-07T13:32:16;15.74;47.42
74946;HTU21D;63509;45.250;38.102;2024-01-07T13:34:43;15.65;47.59
74946;HTU21D;63509;45.250;38.102;2024-01-07T13:37:10;15.55;47.63
74946;HTU21D;63509;45.250;38.102;2024-01-07T13:39:37;15.45;47.79
74946;HTU21D;63509;45.250;38.102;2024-01-07T13:42:04;15.33;47.90
74946;HTU21D;63509;45.250;38.102;2024-01-07T13:44:31;15.23;48.08
74946;HTU21D;63509;45.250;38.102;2024-01-07T13:46:57;15.11;48.28
74946;HTU21D;63509;45.250;38.102;2024-01-07T13:49:36;14.98;48.53
74946;HTU21D;63509;45.250;38.102;2024-01-07T13:52:03;14.86;48.64
74946;HTU21D;63509;45.250;38.102;2024-01-07T13:54:30;14.75;48.86
74946;HTU21D;63509;45.250;38.102;2024-01-07T13:56:56;14.67;48.98
74946;HTU21D;63509;45.250;38.102;2024-01-07T13:59:23;14.58;49.09
74946;HTU21D;63509;45.250;38.102;2024-01-07T14:01:49;14.49;49.18
74946;HTU21D;63509;45.250;38.102;2024-01-07T14:04:15;14.42;49.20
74946;HTU21D;63509;45.250;38.102;2024-01-07T14:06:42;14.35;49.35
74946;HTU21D;63509;45.250;38.102;2024-01-07T14:09:09;14.25;49.37
74946;HTU21D;63509;45.250;38.102;2024-01-07T14:11:35;14.17;49.50
74946;HTU21D;63509;45.250;38.102;2024-01-07T14:14:02;14.10;49.59
74946;HTU21D;63509;45.250;38.102;2024-01-07T14:16:28;14.04;49.74
74946;HTU21D;63509;45.250;38.102;2024-01-07T14:18:54;13.97;49.85
74946;HTU21D;63509;45.250;38.102;2024-01-07T14:21:20;13.91;49.94
74946;HTU21D;63509;45.250;38.102;2024-01-07T14:23:48;13.85;50.12
74946;HTU21D;63509;45.250;38.102;2024-01-07T14:26:14;13.79;50.21
74946;HTU21D;63509;45.250;38.102;2024-01-07T14:28:40;13.71;50.31
74946;HTU21D;63509;45.250;38.102;2024-01-07T14:31:07;13.68;50.27
74946;HTU21D;63509;45.250;38.102;2024-01-07T14:33:34;13.63;50.40
74946;HTU21D;63509;45.250;38.102;2024-01-07T14:36:02;13.54;50.59
74946;HTU21D;63509;45.250;38.102;2024-01-07T14:38:29;13.52;50.68
74946;HTU21D;63509;45.250;38.102;2024-01-07T14:40:55;13.48;50.88
74946;HTU21D;63509;45.250;38.102;2024-01-07T14:43:22;13.43;50.95
74946;HTU21D;63509;45.250;38.102;2024-01-07T14:45:48;13.41;51.04
74946;HTU21D;63509;45.250;38.102;2024-01-07T14:48:15;13.37;51.14
74946;HTU21D;63509;45.250;38.102;2024-01-07T14:50:41;13.34;51.30
74946;HTU21D;63509;45.250;38.102;2024-01-07T14:53:10;13.29;51.46
74946;HTU21D;63509;45.250;38.102;2024-01-07T14:55:36;13.24;51.55
74946;HTU21D;63509;45.250;38.102;2024-01-07T14:58:02;13.20;51.62
74946;HTU21D;63509;45.250;38.102;2024-01-07T15:00:29;13.17;51.75
74946;HTU21D;63509;45.250;38.102;2024-01-07T15:02:55;13.11;51.86
74946;HTU21D;63509;45.250;38.102;2024-01-07T15:05:21;13.07;51.83
74946;HTU21D;63509;45.250;38.102;2024-01-07T15:07:47;13.02;51.94
74946;HTU21D;63509;45.250;38.102;2024-01-07T15:10:17;12.99;52.06